Acre, Israel
Current Conditions -  °F | °C
As of 9:50 AM on Friday 31 Oct 2014 (Local Time) from LLHA Reporting Station
Scattered Clouds Scattered Clouds  
Wind Chill: 73°   Ceiling: Unl
Heat Index: 73°   Visibility: 6mi
Dew Point: 61°   Wind: 2mph
Humidity: 65%   Direction: NA
Pressure: 29.91"   Gusts: NA
Location:  32.93°N, 35.08°E
Report Text: LLHA 310650Z VRB02KT 9999 SCT030 23/16 Q1013 RMK RERA
Loading
Personal Weather Stations






























Interactive Weather Map
Tropical Storm Tracking
New forecast layout! Learn more

10-Day Weather Forecast

Advertisements
Track Severe Weather on mobile